Time;durP1;ratioP1;P1;durP2;ratioP2;P2;SDS_P1;SDS_P2;PMS_P1;PMS_P2;Temp;Humidity;BMP_temperature;BMP_pressure;BME280_temperature;BME280_humidity;BME280_pressure;Samples;Min_cycle;Max_cycle;Signal;HPM_P1;HPM_P2
2021/10/26 00:01:33;;;;;;;39.15;32.17;;;11.70;99.90;;;;;;6059655;23;20062;-48
2021/10/26 00:03:59;;;;;;;42.88;34.58;;;11.70;99.90;;;;;;6060572;23;20037;-48
2021/10/26 00:06:25;;;;;;;38.65;34.30;;;11.70;99.90;;;;;;6059198;23;20031;-47
2021/10/26 00:08:55;;;;;;;40.15;34.30;;;11.60;99.90;;;;;;6060094;23;20026;-49
2021/10/26 00:11:21;;;;;;;42.45;33.40;;;11.70;99.90;;;;;;6059491;23;20033;-49
2021/10/26 00:13:47;;;;;;;45.13;34.63;;;11.60;99.90;;;;;;6059399;23;20456;-48
2021/10/26 00:16:13;;;;;;;41.40;33.38;;;11.70;99.90;;;;;;6058314;23;20027;-48
2021/10/26 00:18:39;;;;;;;44.25;36.00;;;11.60;99.90;;;;;;6059329;23;20030;-48
2021/10/26 00:21:05;;;;;;;42.28;34.45;;;11.60;99.90;;;;;;6059761;23;20031;-48
2021/10/26 00:23:31;;;;;;;42.53;34.60;;;11.70;99.90;;;;;;6059167;23;20353;-49
2021/10/26 00:25:58;;;;;;;42.00;35.30;;;11.60;99.90;;;;;;6058366;23;20038;-47
2021/10/26 00:28:24;;;;;;;42.00;35.13;;;11.60;99.90;;;;;;6059202;23;20030;-48
2021/10/26 00:30:51;;;;;;;41.50;36.20;;;11.60;99.90;;;;;;6059031;23;20132;-48
2021/10/26 00:33:17;;;;;;;51.00;38.50;;;11.60;99.90;;;;;;6033723;23;20030;-47
2021/10/26 00:35:43;;;;;;;47.60;37.92;;;11.60;99.90;;;;;;6058705;23;20038;-48
2021/10/26 00:38:09;;;;;;;50.47;37.55;;;11.60;99.90;;;;;;6032706;23;20347;-48
2021/10/26 00:40:35;;;;;;;48.80;37.88;;;11.60;99.90;;;;;;6059035;23;20031;-47
2021/10/26 00:43:01;;;;;;;49.90;40.80;;;11.60;99.90;;;;;;6059048;23;20027;-48
2021/10/26 00:45:28;;;;;;;46.67;40.03;;;11.70;99.90;;;;;;6033163;23;20471;-48
2021/10/26 00:47:54;;;;;;;52.75;40.22;;;11.70;99.90;;;;;;6031926;23;20023;-49
2021/10/26 00:50:20;;;;;;;47.75;38.33;;;11.70;99.90;;;;;;6032486;23;20027;-47
2021/10/26 00:52:46;;;;;;;48.40;38.63;;;11.70;99.90;;;;;;6058514;23;20480;-48
2021/10/26 00:55:13;;;;;;;47.65;39.78;;;11.70;99.90;;;;;;6032944;23;20464;-47
2021/10/26 00:57:41;;;;;;;50.13;39.53;;;11.70;99.90;;;;;;6033205;23;20031;-48
2021/10/26 01:00:11;;;;;;;49.53;39.13;;;11.70;99.90;;;;;;6056172;23;20034;-48
2021/10/26 01:02:37;;;;;;;49.75;39.03;;;11.70;99.90;;;;;;6073986;23;20075;-49
2021/10/26 01:05:05;;;;;;;51.35;40.38;;;11.70;99.90;;;;;;6085595;23;20026;-46
2021/10/26 01:07:32;;;;;;;52.67;40.15;;;11.80;99.90;;;;;;6086043;23;20022;-48
2021/10/26 01:09:58;;;;;;;53.90;41.65;;;11.70;99.90;;;;;;6087547;23;20030;-47
2021/10/26 01:12:24;;;;;;;47.92;40.20;;;11.80;99.90;;;;;;6087817;23;20049;-47
2021/10/26 01:14:51;;;;;;;50.22;40.20;;;11.80;99.90;;;;;;6088939;23;20035;-47
2021/10/26 01:17:17;;;;;;;48.05;39.10;;;11.70;99.90;;;;;;6087725;23;20094;-48
2021/10/26 01:19:49;;;;;;;51.10;39.65;;;11.70;99.90;;;;;;6087141;23;20026;-47
2021/10/26 01:22:17;;;;;;;51.63;39.92;;;11.70;99.90;;;;;;6088113;23;20094;-47
2021/10/26 01:24:44;;;;;;;47.08;38.05;;;11.70;99.90;;;;;;6088129;23;20065;-48
2021/10/26 01:27:10;;;;;;;50.40;36.20;;;11.70;99.90;;;;;;6088195;23;20045;-47
2021/10/26 01:29:37;;;;;;;47.97;36.20;;;11.80;99.90;;;;;;6087256;23;20147;-47
2021/10/26 01:32:07;;;;;;;45.30;37.08;;;11.80;99.90;;;;;;6087246;23;20048;-48
2021/10/26 01:34:38;;;;;;;45.80;37.55;;;11.80;99.90;;;;;;6088286;23;20067;-48
2021/10/26 01:37:08;;;;;;;47.72;39.88;;;11.80;99.90;;;;;;6087168;23;20031;-47
2021/10/26 01:39:36;;;;;;;50.58;39.53;;;11.70;99.90;;;;;;6087090;23;20761;-49
2021/10/26 01:42:04;;;;;;;50.28;39.38;;;11.80;99.90;;;;;;6087099;23;20033;-48
2021/10/26 01:44:32;;;;;;;49.25;40.15;;;11.70;99.90;;;;;;6087341;23;20443;-48
2021/10/26 01:47:05;;;;;;;56.95;42.97;;;11.70;99.90;;;;;;6087938;23;20026;-49
2021/10/26 01:49:32;;;;;;;51.20;39.08;;;11.70;99.90;;;;;;6087947;23;20022;-48
2021/10/26 01:51:58;;;;;;;55.05;41.33;;;11.70;99.90;;;;;;6111443;23;20113;-48
2021/10/26 01:54:27;;;;;;;48.40;38.42;;;11.60;99.90;;;;;;6087190;23;20089;-50
2021/10/26 01:56:53;;;;;;;50.58;40.30;;;11.60;99.90;;;;;;6087405;23;20030;-48
2021/10/26 01:59:27;;;;;;;50.35;41.08;;;11.50;99.90;;;;;;6086337;23;20535;-48
2021/10/26 02:01:53;;;;;;;52.92;40.63;;;11.50;99.90;;;;;;6111679;23;20023;-49
2021/10/26 02:04:30;;;;;;;55.33;40.67;;;11.50;99.90;;;;;;6086578;23;20085;-47
2021/10/26 02:06:56;;;;;;;50.85;40.08;;;11.50;99.90;;;;;;6086692;23;20110;-49
2021/10/26 02:09:22;;;;;;;56.75;40.15;;;11.50;99.90;;;;;;6087219;23;20077;-46
2021/10/26 02:11:48;;;;;;;54.25;40.08;;;11.50;99.90;;;;;;6086360;23;20032;-45
2021/10/26 02:14:15;;;;;;;53.65;41.10;;;11.50;99.90;;;;;;6088764;23;20042;-47
2021/10/26 02:16:41;;;;;;;53.75;41.42;;;11.50;99.90;;;;;;6086425;23;20031;-45
2021/10/26 02:19:07;;;;;;;52.75;39.42;;;11.40;99.90;;;;;;6085813;23;20113;-45
2021/10/26 02:21:33;;;;;;;55.03;42.22;;;11.40;99.90;;;;;;6085759;23;20101;-49
2021/10/26 02:24:01;;;;;;;58.83;39.63;;;11.40;99.90;;;;;;6086853;23;20038;-47
2021/10/26 02:26:30;;;;;;;53.13;40.03;;;11.50;99.90;;;;;;6087202;23;20026;-46
2021/10/26 02:28:57;;;;;;;52.58;41.33;;;11.50;99.90;;;;;;6087779;23;20329;-46
2021/10/26 02:31:23;;;;;;;53.22;41.78;;;11.50;99.90;;;;;;6088368;23;20030;-47
2021/10/26 02:33:49;;;;;;;61.80;40.95;;;11.50;99.90;;;;;;6087952;23;20173;-46
2021/10/26 02:36:15;;;;;;;54.35;41.28;;;11.50;99.90;;;;;;6086606;23;20546;-47
2021/10/26 02:38:42;;;;;;;51.20;39.90;;;11.50;99.90;;;;;;6085171;23;20023;-47
2021/10/26 02:41:08;;;;;;;60.35;41.47;;;11.50;99.90;;;;;;6086593;23;20030;-50
2021/10/26 02:43:34;;;;;;;64.25;41.33;;;11.40;99.90;;;;;;6086751;23;20040;-53
2021/10/26 02:46:01;;;;;;;62.58;44.22;;;11.40;99.90;;;;;;6086275;23;20152;-46
2021/10/26 02:48:29;;;;;;;57.53;40.28;;;11.40;99.90;;;;;;6085547;23;20066;-46
2021/10/26 02:50:57;;;;;;;60.88;41.13;;;11.30;99.90;;;;;;6086505;23;20041;-45
2021/10/26 02:53:23;;;;;;;57.75;40.20;;;11.30;99.90;;;;;;6088464;23;20081;-45
2021/10/26 02:55:50;;;;;;;60.70;39.63;;;11.30;99.90;;;;;;6087857;23;20748;-46
2021/10/26 02:58:19;;;;;;;61.10;41.08;;;11.20;99.90;;;;;;6085161;23;20030;-46
2021/10/26 03:00:46;;;;;;;66.38;40.15;;;11.20;99.90;;;;;;6087044;23;20527;-49
2021/10/26 03:03:13;;;;;;;66.30;41.83;;;11.10;99.90;;;;;;6034171;23;20042;-49
2021/10/26 03:05:39;;;;;;;58.95;38.08;;;11.10;99.90;;;;;;6034241;23;20026;-50
2021/10/26 03:08:06;;;;;;;63.53;40.13;;;11.10;99.90;;;;;;6057405;23;20026;-46
2021/10/26 03:10:33;;;;;;;57.42;38.10;;;11.00;99.90;;;;;;6056673;23;20461;-47
2021/10/26 03:12:59;;;;;;;72.43;40.17;;;11.00;99.90;;;;;;6057291;23;20031;-47
2021/10/26 03:15:25;;;;;;;69.63;41.47;;;11.00;99.90;;;;;;6058497;23;20033;-47
2021/10/26 03:17:58;;;;;;;63.63;40.72;;;11.00;99.90;;;;;;6057954;23;20447;-45
2021/10/26 03:20:25;;;;;;;62.42;40.67;;;10.90;99.90;;;;;;6032853;23;20026;-46
2021/10/26 03:22:51;;;;;;;56.47;37.35;;;10.90;99.90;;;;;;6059631;23;20086;-46
2021/10/26 03:25:18;;;;;;;64.03;38.53;;;10.90;99.90;;;;;;6034186;23;20053;-46
2021/10/26 03:27:44;;;;;;;60.58;38.58;;;10.90;99.90;;;;;;6058155;23;20030;-45
2021/10/26 03:30:13;;;;;;;64.35;40.40;;;10.80;99.90;;;;;;6032524;23;20027;-46
2021/10/26 03:32:40;;;;;;;65.85;40.15;;;10.80;99.90;;;;;;6034143;23;20537;-44
2021/10/26 03:35:45;;;;;;;74.40;41.35;;;10.70;99.90;;;;;;5942468;24;20029;-46
2021/10/26 03:38:11;;;;;;;67.25;42.15;;;10.60;99.90;;;;;;5942885;24;20120;-45
2021/10/26 03:40:38;;;;;;;74.47;44.33;;;10.60;99.90;;;;;;5918520;24;20036;-44
2021/10/26 03:43:06;;;;;;;79.55;45.67;;;10.50;99.90;;;;;;5943398;24;20032;-45
2021/10/26 03:45:32;;;;;;;78.03;43.28;;;10.50;99.90;;;;;;5942365;24;20064;-44
2021/10/26 03:47:59;;;;;;;88.28;47.72;;;10.50;99.90;;;;;;5919855;24;20458;-44
2021/10/26 03:50:25;;;;;;;87.63;49.35;;;10.50;99.90;;;;;;5918509;24;20189;-46
2021/10/26 03:52:52;;;;;;;90.55;49.67;;;10.50;99.90;;;;;;5920280;24;20070;-45
2021/10/26 03:55:20;;;;;;;98.13;48.75;;;10.50;99.90;;;;;;5921950;24;20035;-45
2021/10/26 03:57:48;;;;;;;89.47;49.45;;;10.50;99.90;;;;;;5943643;24;20051;-45
2021/10/26 04:00:14;;;;;;;97.00;51.40;;;10.50;99.90;;;;;;5942824;24;20387;-45
2021/10/26 04:02:48;;;;;;;108.38;53.28;;;10.50;99.90;;;;;;5991400;23;20114;-45
2021/10/26 04:05:36;;;;;;;103.40;53.47;;;10.50;99.90;;;;;;5998618;23;20080;-45
2021/10/26 04:08:17;;;;;;;88.10;51.63;;;10.50;99.90;;;;;;6085873;23;20049;-45
2021/10/26 04:10:50;;;;;;;91.75;50.63;;;10.50;99.90;;;;;;6085041;23;20392;-45
2021/10/26 04:13:16;;;;;;;87.95;48.42;;;10.50;99.90;;;;;;6087166;23;20396;-45
2021/10/26 04:15:42;;;;;;;95.70;50.78;;;10.50;99.90;;;;;;6109254;23;20463;-45
2021/10/26 04:18:11;;;;;;;96.25;51.45;;;10.50;99.90;;;;;;6085521;23;20027;-44
2021/10/26 04:20:37;;;;;;;97.40;54.63;;;10.50;99.90;;;;;;6084977;23;20333;-45
2021/10/26 04:23:03;;;;;;;100.05;50.65;;;10.50;99.90;;;;;;6086390;23;20034;-46
2021/10/26 04:25:30;;;;;;;93.63;54.40;;;10.50;99.90;;;;;;6088457;23;20050;-44
2021/10/26 04:27:57;;;;;;;91.68;51.80;;;10.60;99.90;;;;;;6085635;23;20030;-45
2021/10/26 04:30:23;;;;;;;80.90;49.78;;;10.50;99.90;;;;;;6085180;23;20779;-44
2021/10/26 04:32:49;;;;;;;91.95;49.75;;;10.50;99.90;;;;;;6085752;23;20026;-44
2021/10/26 04:35:15;;;;;;;88.20;49.13;;;10.50;99.90;;;;;;6086747;23;20026;-46
2021/10/26 04:37:42;;;;;;;102.63;52.05;;;10.40;99.90;;;;;;6087272;23;20030;-44
2021/10/26 04:40:09;;;;;;;89.90;50.17;;;10.40;99.90;;;;;;6086988;23;20450;-45
2021/10/26 04:42:37;;;;;;;104.43;50.78;;;10.40;99.90;;;;;;6087758;23;20030;-45
2021/10/26 04:45:05;;;;;;;84.25;49.03;;;10.30;99.90;;;;;;6087912;23;20048;-45
2021/10/26 04:47:35;;;;;;;88.70;48.25;;;10.30;99.90;;;;;;6089868;23;20026;-46
2021/10/26 04:50:01;;;;;;;85.13;46.33;;;10.20;99.90;;;;;;6086744;23;20022;-45
2021/10/26 04:52:27;;;;;;;90.15;45.95;;;10.10;99.90;;;;;;6087538;23;20434;-45
2021/10/26 04:54:53;;;;;;;82.28;47.53;;;10.10;99.90;;;;;;6039930;23;20023;-45
2021/10/26 04:57:19;;;;;;;93.15;48.63;;;10.10;99.90;;;;;;6087633;23;20037;-45
2021/10/26 05:00:08;;;;;;;86.70;47.72;;;10.20;99.90;;;;;;6088169;23;20125;-46
2021/10/26 05:02:36;;;;;;;103.18;49.33;;;10.30;99.90;;;;;;6064698;23;20026;-45
2021/10/26 05:05:04;;;;;;;96.07;50.10;;;10.30;99.90;;;;;;6088049;23;20026;-45
2021/10/26 05:07:30;;;;;;;100.63;49.13;;;10.30;99.90;;;;;;6088207;23;20117;-46
2021/10/26 05:09:57;;;;;;;98.43;50.90;;;10.40;99.90;;;;;;6086219;23;20531;-47
2021/10/26 05:12:23;;;;;;;94.78;48.35;;;10.40;99.90;;;;;;6087602;23;20117;-46
2021/10/26 05:14:50;;;;;;;97.80;50.38;;;10.50;99.90;;;;;;6088484;23;20079;-45
2021/10/26 05:17:52;;;;;;;97.43;47.88;;;10.50;99.90;;;;;;6028817;23;20035;-46
2021/10/26 05:20:38;;;;;;;97.63;49.15;;;10.60;99.90;;;;;;6026915;23;20035;-45
2021/10/26 05:23:09;;;;;;;93.60;48.03;;;10.60;99.90;;;;;;6027820;23;20047;-45
2021/10/26 05:25:38;;;;;;;79.63;45.58;;;10.60;99.90;;;;;;6028137;23;20027;-46
2021/10/26 05:28:13;;;;;;;83.47;45.45;;;10.70;99.90;;;;;;6004411;23;20033;-45
2021/10/26 05:30:40;;;;;;;84.88;46.72;;;10.70;99.90;;;;;;6004571;23;20469;-46
2021/10/26 05:33:06;;;;;;;83.95;44.38;;;10.70;99.90;;;;;;6028981;23;20525;-46
2021/10/26 05:35:32;;;;;;;84.30;44.33;;;10.70;99.90;;;;;;6005409;23;20027;-48
2021/10/26 05:37:58;;;;;;;76.07;42.92;;;10.80;99.90;;;;;;6028533;23;20038;-47
2021/10/26 05:40:24;;;;;;;77.95;42.13;;;10.80;99.90;;;;;;6027768;23;20039;-46
2021/10/26 05:42:50;;;;;;;80.70;43.03;;;10.80;99.90;;;;;;6028065;23;20031;-46
2021/10/26 05:45:19;;;;;;;90.00;44.28;;;10.80;99.90;;;;;;6005540;23;20460;-45
2021/10/26 05:47:45;;;;;;;76.30;44.17;;;10.80;99.90;;;;;;6028728;23;20361;-47
2021/10/26 05:50:12;;;;;;;84.03;44.05;;;10.80;99.90;;;;;;6028976;23;20031;-46
2021/10/26 05:52:38;;;;;;;91.70;45.67;;;10.80;99.90;;;;;;6077937;23;20034;-47
2021/10/26 05:55:05;;;;;;;83.22;42.83;;;10.80;99.90;;;;;;6090153;23;20069;-47
2021/10/26 05:57:32;;;;;;;82.25;42.90;;;10.90;99.90;;;;;;6089092;23;20027;-46
2021/10/26 05:59:59;;;;;;;81.50;42.70;;;10.90;99.90;;;;;;6088146;23;20525;-45
2021/10/26 06:02:25;;;;;;;75.28;41.17;;;10.80;99.90;;;;;;6086509;23;20026;-48
2021/10/26 06:04:52;;;;;;;82.15;43.85;;;10.80;99.90;;;;;;6089461;23;20026;-46
2021/10/26 06:07:18;;;;;;;81.95;43.20;;;10.90;99.90;;;;;;6064735;23;20098;-49
2021/10/26 06:09:44;;;;;;;88.10;43.10;;;10.90;99.90;;;;;;6090372;23;20101;-46
2021/10/26 06:12:17;;;;;;;73.10;41.72;;;10.90;99.90;;;;;;6086628;23;20407;-46
2021/10/26 06:14:44;;;;;;;91.40;45.53;;;10.90;99.90;;;;;;6088148;23;20076;-50
2021/10/26 06:17:11;;;;;;;85.43;43.83;;;10.90;99.90;;;;;;6088475;23;20026;-46
2021/10/26 06:19:37;;;;;;;86.47;42.95;;;10.90;99.90;;;;;;6087779;23;20026;-47
2021/10/26 06:22:04;;;;;;;91.47;45.22;;;10.90;99.90;;;;;;6088138;23;20042;-46
2021/10/26 06:24:31;;;;;;;94.55;43.72;;;10.90;99.90;;;;;;6088300;23;20109;-46
2021/10/26 06:26:59;;;;;;;74.82;42.08;;;10.90;99.90;;;;;;6088305;23;20109;-47
2021/10/26 06:29:25;;;;;;;81.75;43.22;;;11.00;99.90;;;;;;6065308;23;20030;-45
2021/10/26 06:32:14;;;;;;;80.93;41.20;;;10.90;99.90;;;;;;6088981;23;20027;-45
2021/10/26 06:34:40;;;;;;;80.78;41.03;;;11.00;99.90;;;;;;6063324;23;20042;-47
2021/10/26 06:37:08;;;;;;;80.38;42.78;;;11.00;99.90;;;;;;6088346;23;20423;-46
2021/10/26 06:39:34;;;;;;;79.07;41.92;;;11.00;99.90;;;;;;6084877;23;20834;-46
2021/10/26 06:42:00;;;;;;;79.82;44.33;;;11.00;99.90;;;;;;6087128;23;20108;-48
2021/10/26 06:44:49;;;;;;;81.03;43.20;;;11.00;99.90;;;;;;6085869;23;20410;-47
2021/10/26 06:47:37;;;;;;;73.10;43.63;;;11.00;99.90;;;;;;6089742;23;20030;-46
2021/10/26 06:50:22;;;;;;;84.57;43.15;;;11.00;99.90;;;;;;6089676;23;20271;-46
2021/10/26 06:53:24;;;;;;;83.25;45.25;;;11.00;99.90;;;;;;6011710;23;20069;-45
2021/10/26 06:56:15;;;;;;;87.15;46.70;;;11.10;99.90;;;;;;6028591;23;20853;-46
2021/10/26 06:58:59;;;;;;;82.88;45.78;;;11.00;99.90;;;;;;6029194;23;20030;-45
2021/10/26 07:59:36;;;;;;;61.42;36.63;;;11.40;99.90;;;;;;5997615;23;20028;-46
2021/10/26 08:02:03;;;;;;;57.28;38.08;;;11.50;99.90;;;;;;6000452;23;20032;-46
2021/10/26 08:04:33;;;;;;;57.60;36.28;;;11.50;99.90;;;;;;6003319;23;20357;-46
2021/10/26 08:07:17;;;;;;;58.50;35.70;;;11.60;99.90;;;;;;5978393;23;20036;-44
2021/10/26 08:09:46;;;;;;;48.90;34.35;;;11.80;99.90;;;;;;5976843;23;20035;-45
2021/10/26 08:12:12;;;;;;;49.45;33.67;;;11.80;99.90;;;;;;6003083;23;20082;-44
2021/10/26 08:14:40;;;;;;;46.35;31.63;;;11.80;99.90;;;;;;5975781;23;20054;-47
2021/10/26 08:17:08;;;;;;;42.72;30.10;;;11.80;99.90;;;;;;6001950;23;20107;-45
2021/10/26 08:19:38;;;;;;;41.78;30.50;;;11.90;99.90;;;;;;5978658;23;20099;-46
2021/10/26 08:22:07;;;;;;;47.25;29.30;;;12.00;99.90;;;;;;5978952;23;20028;-46
2021/10/26 08:24:37;;;;;;;41.42;28.65;;;12.50;99.90;;;;;;5978844;23;20038;-46
2021/10/26 08:27:13;;;;;;;35.85;25.77;;;12.90;99.90;;;;;;5978674;23;20024;-44
2021/10/26 08:29:45;;;;;;;37.47;27.15;;;13.50;99.90;;;;;;5977922;23;20038;-47
2021/10/26 08:37:46;;;;;;;33.05;25.23;;;13.70;99.90;;;;;;5979254;23;20035;-49
2021/10/26 08:40:20;;;;;;;35.80;25.65;;;14.10;99.90;;;;;;5999220;23;20027;-47
2021/10/26 08:42:54;;;;;;;32.90;24.08;;;14.20;99.90;;;;;;6000620;23;20074;-48
2021/10/26 08:45:42;;;;;;;36.33;25.95;;;14.30;99.90;;;;;;5977394;23;20035;-48
2021/10/26 08:48:26;;;;;;;35.47;25.00;;;14.20;99.90;;;;;;5999522;23;20035;-47
2021/10/26 08:50:56;;;;;;;28.60;23.02;;;14.00;99.90;;;;;;6000260;23;20038;-46
2021/10/26 08:53:29;;;;;;;31.50;23.95;;;14.20;99.90;;;;;;5999605;23;20043;-45
2021/10/26 08:55:58;;;;;;;32.22;24.17;;;14.50;99.90;;;;;;6000350;23;20031;-44
2021/10/26 08:58:44;;;;;;;29.40;22.02;;;14.60;99.90;;;;;;5999398;23;20520;-50
2021/10/26 09:01:22;;;;;;;28.20;23.48;;;14.70;99.90;;;;;;5975009;23;20833;-49
2021/10/26 09:04:30;;;;;;;27.77;21.45;;;15.00;99.90;;;;;;5957286;23;20039;-48
2021/10/26 09:07:05;;;;;;;27.73;21.92;;;15.10;99.90;;;;;;5982003;23;20075;-48
2021/10/26 09:09:38;;;;;;;27.10;21.77;;;14.90;99.90;;;;;;6000516;23;20159;-46
2021/10/26 09:18:18;;;;;;;26.60;20.77;;;15.40;99.90;;;;;;5916524;24;20424;-48
2021/10/26 09:20:56;;;;;;;26.25;21.02;;;16.10;99.90;;;;;;5915381;24;20037;-48
2021/10/26 09:23:51;;;;;;;25.08;20.90;;;16.00;99.90;;;;;;5916018;24;20068;-47
2021/10/26 09:26:17;;;;;;;27.33;20.48;;;16.00;99.90;;;;;;5916827;24;20562;-45
2021/10/26 09:28:54;;;;;;;29.60;20.30;;;16.60;99.90;;;;;;5917015;24;20075;-46
2021/10/26 09:31:26;;;;;;;26.33;20.23;;;16.50;99.90;;;;;;5917661;24;20359;-45
2021/10/26 09:34:01;;;;;;;24.77;20.95;;;16.60;99.90;;;;;;5895712;24;20037;-47
2021/10/26 09:36:39;;;;;;;24.02;20.40;;;16.60;99.90;;;;;;5917808;24;20090;-45
2021/10/26 09:39:12;;;;;;;26.10;20.25;;;16.70;99.90;;;;;;5918269;24;20032;-46
2021/10/26 09:41:51;;;;;;;29.02;21.00;;;16.50;99.90;;;;;;5918392;24;20033;-47
2021/10/26 09:44:23;;;;;;;27.45;20.55;;;16.50;99.90;;;;;;5917801;24;20037;-44
2021/10/26 09:46:52;;;;;;;29.65;20.77;;;16.30;99.90;;;;;;5919141;24;20029;-45
2021/10/26 09:49:30;;;;;;;26.17;20.50;;;16.10;99.90;;;;;;5951782;23;20027;-44
2021/10/26 09:52:16;;;;;;;25.73;20.95;;;16.20;99.90;;;;;;6005332;23;20032;-46
2021/10/26 09:54:44;;;;;;;29.55;20.48;;;15.70;99.90;;;;;;6005086;23;20039;-45
2021/10/26 09:57:16;;;;;;;28.13;20.65;;;15.70;99.90;;;;;;6005488;23;20039;-45
2021/10/26 09:59:47;;;;;;;28.35;20.63;;;15.80;99.90;;;;;;6002956;23;20339;-45
2021/10/26 10:02:24;;;;;;;30.25;22.80;;;16.00;99.90;;;;;;6004947;23;20055;-44
2021/10/26 10:04:56;;;;;;;26.60;20.52;;;15.60;99.90;;;;;;6004781;23;20031;-46
2021/10/26 10:07:48;;;;;;;27.80;19.63;;;15.60;99.90;;;;;;6005408;23;20035;-45
2021/10/26 10:10:14;;;;;;;;;;;15.90;99.90;;;;;;5978019;23;20462;-45
2021/10/26 10:12:59;;;;;;;25.77;19.30;;;15.90;99.90;;;;;;5980382;23;19925;-46
2021/10/26 10:15:27;;;;;;;28.05;19.88;;;16.50;99.90;;;;;;6005310;23;20035;-45
2021/10/26 10:17:55;;;;;;;23.73;18.35;;;16.90;99.90;;;;;;6003780;23;20096;-47
2021/10/26 10:20:21;;;;;;;24.08;19.25;;;17.30;99.90;;;;;;6003635;23;20038;-50
2021/10/26 10:22:47;;;;;;;25.85;18.00;;;17.50;99.90;;;;;;6003036;23;20036;-50
2021/10/26 10:25:15;;;;;;;21.85;16.38;;;17.00;99.90;;;;;;6003898;23;20055;-48
2021/10/26 10:27:43;;;;;;;24.55;18.05;;;16.90;99.90;;;;;;5978960;23;20353;-45
2021/10/26 10:30:10;;;;;;;22.80;18.05;;;16.70;99.90;;;;;;6004684;23;20027;-45
2021/10/26 10:32:37;;;;;;;25.08;18.40;;;16.40;99.90;;;;;;6003301;23;20668;-46
2021/10/26 10:35:08;;;;;;;28.00;18.40;;;16.60;99.90;;;;;;6004147;23;20032;-45
2021/10/26 10:37:35;;;;;;;25.93;18.20;;;17.00;99.90;;;;;;6003053;23;20571;-46
2021/10/26 10:40:05;;;;;;;22.83;16.58;;;17.20;99.90;;;;;;6003658;23;20028;-47
2021/10/26 10:42:32;;;;;;;24.48;18.35;;;17.40;99.90;;;;;;5978421;23;20544;-44
2021/10/26 10:45:01;;;;;;;22.80;17.98;;;17.30;99.90;;;;;;6004209;23;20093;-45
2021/10/26 10:47:42;;;;;;;21.63;17.27;;;17.10;99.90;;;;;;6003947;23;20114;-46
2021/10/26 10:50:21;;;;;;;24.20;16.57;;;17.30;99.90;;;;;;6003889;23;20343;-44
2021/10/26 10:53:07;;;;;;;23.20;17.27;;;17.70;99.90;;;;;;6002954;23;20339;-46
2021/10/26 10:55:34;;;;;;;22.08;17.08;;;18.20;99.90;;;;;;6003729;23;20088;-46
2021/10/26 10:58:22;;;;;;;22.55;16.45;;;18.30;99.90;;;;;;6004877;23;20526;-46
2021/10/26 11:00:49;;;;;;;24.33;16.23;;;17.60;99.90;;;;;;6004419;23;20031;-44
2021/10/26 11:03:44;;;;;;;24.63;15.38;;;17.00;99.90;;;;;;6003657;23;20518;-46
2021/10/26 11:06:42;;;;;;;19.67;15.30;;;16.70;99.90;;;;;;5889541;24;20030;-44
2021/10/26 11:09:30;;;;;;;23.17;15.55;;;16.00;99.90;;;;;;5889061;24;20021;-47
2021/10/26 11:12:17;;;;;;;20.42;15.10;;;15.70;99.90;;;;;;5888373;24;20032;-46
2021/10/26 11:14:55;;;;;;;21.52;14.73;;;15.40;99.90;;;;;;5889397;24;20472;-44
2021/10/26 11:20:08;;;;;;;23.67;17.15;;;15.30;99.90;;;;;;5888864;24;20029;-47
2021/10/26 11:22:55;;;;;;;21.92;15.50;;;15.30;99.90;;;;;;5888704;24;20065;-45
2021/10/26 11:25:22;;;;;;;20.58;15.13;;;15.00;99.90;;;;;;5889845;24;20113;-44
2021/10/26 11:27:50;;;;;;;24.20;16.15;;;14.90;99.90;;;;;;5888864;24;20037;-46
2021/10/26 11:30:27;;;;;;;20.42;15.23;;;14.90;99.90;;;;;;5888812;24;20163;-48
2021/10/26 11:33:22;;;;;;;26.60;16.52;;;15.00;99.90;;;;;;5887709;24;20722;-48
2021/10/26 11:35:53;;;;;;;20.42;15.68;;;14.90;99.90;;;;;;5834751;24;20030;-45
2021/10/26 11:38:24;;;;;;;23.02;16.15;;;14.80;99.90;;;;;;5835285;24;20042;-46
2021/10/26 11:41:05;;;;;;;25.02;16.60;;;14.80;99.90;;;;;;5835906;24;20030;-44
2021/10/26 11:43:59;;;;;;;29.48;18.70;;;14.80;99.90;;;;;;5905843;24;20472;-44
2021/10/26 11:46:39;;;;;;;27.42;17.60;;;14.80;99.90;;;;;;5834972;24;20217;-45
2021/10/26 11:49:23;;;;;;;28.42;17.08;;;14.70;99.90;;;;;;5835776;24;20035;-44
2021/10/26 11:51:58;;;;;;;25.08;17.13;;;14.60;99.90;;;;;;5835240;24;20042;-46
2021/10/26 11:54:39;;;;;;;26.52;18.70;;;14.60;99.90;;;;;;5811936;24;20483;-45
2021/10/26 11:57:07;;;;;;;27.35;20.30;;;14.60;99.90;;;;;;5835905;24;20612;-44
2021/10/26 11:59:41;;;;;;;;;;;14.70;99.90;;;;;;5812733;24;20088;-43
2021/10/26 12:02:45;;;;;;;30.63;21.70;;;14.60;99.90;;;;;;5861457;24;19951;-46
2021/10/26 12:05:21;;;;;;;29.10;20.73;;;14.50;99.90;;;;;;5862870;24;20112;-47
2021/10/26 12:07:49;;;;;;;26.88;21.55;;;14.50;99.90;;;;;;5862462;24;20034;-45
2021/10/26 12:10:16;;;;;;;27.42;20.73;;;14.60;99.90;;;;;;5861665;24;20484;-46
2021/10/26 12:12:42;;;;;;;26.33;20.35;;;14.50;99.90;;;;;;5890956;24;20033;-45
2021/10/26 12:15:10;;;;;;;30.90;23.30;;;14.50;99.90;;;;;;5938577;24;20600;-45
2021/10/26 12:17:40;;;;;;;28.70;23.13;;;14.60;99.90;;;;;;5917223;24;20036;-46
2021/10/26 12:20:16;;;;;;;25.58;20.83;;;14.50;99.90;;;;;;5916912;24;20037;-46
2021/10/26 12:23:11;;;;;;;;;;;14.60;99.90;;;;;;5929894;24;20029;-46
2021/10/26 12:25:48;;;;;;;29.92;22.88;;;14.60;99.90;;;;;;5915028;24;19923;-45
2021/10/26 12:28:14;;;;;;;33.42;22.90;;;14.70;99.90;;;;;;5916091;24;20065;-48
2021/10/26 12:30:42;;;;;;;30.10;23.80;;;14.70;99.90;;;;;;5916576;24;20029;-45
2021/10/26 12:33:28;;;;;;;27.35;21.75;;;14.50;99.90;;;;;;5915594;24;20029;-44
2021/10/26 12:36:04;;;;;;;30.92;23.25;;;14.50;99.90;;;;;;5930105;23;20492;-45
2021/10/26 12:38:39;;;;;;;28.92;21.95;;;14.50;99.90;;;;;;5976752;23;20103;-44
2021/10/26 12:41:14;;;;;;;32.38;23.83;;;14.40;99.90;;;;;;5976490;23;20040;-45
2021/10/26 12:43:47;;;;;;;30.35;23.05;;;14.30;99.90;;;;;;5975971;23;20032;-43
2021/10/26 12:46:20;;;;;;;35.95;24.25;;;14.10;99.90;;;;;;5999435;23;20072;-44
2021/10/26 12:48:46;;;;;;;35.08;24.83;;;13.90;99.90;;;;;;5999454;23;20028;-44
2021/10/26 12:51:25;;;;;;;34.95;24.02;;;13.80;99.90;;;;;;5999671;23;20027;-45
2021/10/26 12:53:52;;;;;;;29.83;22.60;;;13.70;99.90;;;;;;5976395;23;20043;-48
2021/10/26 12:56:24;;;;;;;34.60;24.10;;;13.60;99.90;;;;;;5999248;23;20035;-46
2021/10/26 12:59:08;;;;;;;40.42;25.65;;;13.40;99.90;;;;;;5999348;23;20024;-50
2021/10/26 13:01:39;;;;;;;41.42;26.02;;;13.30;99.90;;;;;;6003539;23;20023;-46
2021/10/26 13:04:16;;;;;;;39.22;26.05;;;13.20;99.90;;;;;;6004846;23;20043;-48
2021/10/26 13:07:00;;;;;;;45.28;27.13;;;13.10;99.90;;;;;;6005457;23;20444;-46
2021/10/26 13:09:37;;;;;;;38.42;26.17;;;13.00;99.90;;;;;;6005466;23;20513;-47
2021/10/26 13:12:16;;;;;;;41.45;25.63;;;13.00;99.90;;;;;;6004612;23;20742;-45
2021/10/26 13:14:51;;;;;;;40.42;23.83;;;12.90;99.90;;;;;;6003447;23;20023;-49
2021/10/26 13:17:32;;;;;;;38.80;22.38;;;12.90;99.90;;;;;;6005298;23;20595;-46
2021/10/26 13:20:32;;;;;;;33.38;21.13;;;12.90;99.90;;;;;;5980101;23;20035;-50
2021/10/26 13:23:24;;;;;;;37.97;20.85;;;12.90;99.90;;;;;;5979179;23;20031;-46
2021/10/26 13:26:04;;;;;;;27.77;18.38;;;12.90;99.90;;;;;;6004088;23;20027;-46
2021/10/26 13:28:33;;;;;;;31.77;18.63;;;12.90;99.90;;;;;;6004238;23;20035;-47
2021/10/26 13:31:05;;;;;;;26.98;18.15;;;12.80;99.90;;;;;;6005097;23;20040;-48
2021/10/26 13:33:37;;;;;;;30.85;17.92;;;12.80;99.90;;;;;;6005024;23;20028;-50
2021/10/26 13:36:08;;;;;;;31.45;18.30;;;12.90;99.90;;;;;;6005061;23;20038;-48
2021/10/26 13:38:34;;;;;;;27.75;17.20;;;12.90;99.90;;;;;;6004688;23;20677;-49
2021/10/26 13:41:05;;;;;;;27.27;17.42;;;12.90;99.90;;;;;;6005388;23;20115;-50
2021/10/26 13:43:35;;;;;;;23.40;15.82;;;13.00;99.90;;;;;;6005447;23;20034;-48
2021/10/26 13:46:07;;;;;;;21.10;13.70;;;13.00;99.90;;;;;;6005511;23;20043;-48
2021/10/26 13:48:34;;;;;;;25.02;16.00;;;12.90;99.90;;;;;;6005879;23;20106;-46
2021/10/26 13:51:02;;;;;;;24.88;15.38;;;13.00;99.90;;;;;;6004871;23;20031;-47
2021/10/26 13:53:30;;;;;;;20.92;14.77;;;12.90;99.90;;;;;;6004891;23;20059;-46
2021/10/26 13:55:59;;;;;;;21.92;15.52;;;12.90;99.90;;;;;;6004825;23;20083;-46
2021/10/26 13:58:26;;;;;;;22.40;15.13;;;12.90;99.90;;;;;;6005037;23;20039;-47
2021/10/26 14:00:55;;;;;;;21.60;15.82;;;12.90;99.90;;;;;;5980133;23;20035;-46
2021/10/26 14:03:21;;;;;;;26.45;17.55;;;12.80;99.90;;;;;;6005424;23;20037;-48